N80EM EGCC-LPMA
Flight info
| Callsign | N80EM |
|---|---|
| Flight time | N/A |
| Altitude | 41000 |
| Route | KUXEM P17 BEPHE/N0489F400 DCT OSSEP DCT ELNIF DCT ZESPE DCT KLAKI DCT SALCO/N0490F410 DCT COQUE DCT KORUL DCT DEMOS DCT ASMAR DCT MARUM DCT RAKUN |
| Aircraft | C750/M-SBDE3FGHRWXY/S |
Departure
| Time | 2026-05-01 14:05 |
|---|---|
| Airport | Manchester Airport (EGCC) |
Arrival
| Time | N/A |
|---|---|
| Airport | Cristiano Ronaldo International Airport (LPMA) |
| Time | Latitude | Longitude | Altitude | Speed | Heading |
|---|---|---|---|---|---|
| 2026-05-01 13:25 | 53.35575 | -2.28153 | 233 ft | 0 kts | 142° |
| 2026-05-01 13:54 | 53.35543 | -2.28133 | 232 ft | 10 kts | 176° |
| 2026-05-01 13:54 | 53.35525 | -2.28094 | 232 ft | 4 kts | 44° |
| 2026-05-01 13:55 | 53.35540 | -2.28072 | 231 ft | 2 kts | 42° |
| 2026-05-01 13:55 | 53.35568 | -2.28021 | 233 ft | 9 kts | 50° |
| 2026-05-01 13:55 | 53.35601 | -2.27954 | 235 ft | 11 kts | 51° |
| 2026-05-01 13:55 | 53.35682 | -2.27780 | 240 ft | 22 kts | 52° |
| 2026-05-01 13:56 | 53.35714 | -2.27630 | 244 ft | 14 kts | 145° |
| 2026-05-01 13:56 | 53.35641 | -2.27550 | 242 ft | 6 kts | 140° |
| 2026-05-01 13:56 | 53.35595 | -2.27489 | 241 ft | 11 kts | 141° |
| 2026-05-01 13:56 | 53.35567 | -2.27451 | 242 ft | 0 kts | 141° |
| 2026-05-01 13:58 | 53.35541 | -2.27417 | 243 ft | 13 kts | 141° |
| 2026-05-01 13:59 | 53.35432 | -2.27269 | 243 ft | 24 kts | 141° |
| 2026-05-01 13:59 | 53.35324 | -2.27192 | 240 ft | 2 kts | 186° |
| 2026-05-01 13:59 | 53.35320 | -2.27193 | 239 ft | 5 kts | 187° |
| 2026-05-01 13:59 | 53.35293 | -2.27201 | 237 ft | 2 kts | 191° |
| 2026-05-01 14:00 | 53.35231 | -2.27222 | 232 ft | 14 kts | 192° |
| 2026-05-01 14:00 | 53.35198 | -2.27233 | 230 ft | 0 kts | 192° |
| 2026-05-01 14:00 | 53.35189 | -2.27237 | 229 ft | 7 kts | 192° |
| 2026-05-01 14:00 | 53.35143 | -2.27253 | 226 ft | 0 kts | 192° |
| 2026-05-01 14:01 | 53.35142 | -2.27253 | 226 ft | 0 kts | 192° |
| 2026-05-01 14:04 | 53.35136 | -2.27255 | 234 ft | 9 kts | 192° |
| 2026-05-01 14:04 | 53.35038 | -2.27298 | 222 ft | 30 kts | 205° |
| 2026-05-01 14:05 | 53.34597 | -2.28175 | 225 ft | 129 kts | 231° |
| 2026-05-01 14:05 | 53.34184 | -2.29034 | 365 ft | 147 kts | 232° |
| 2026-05-01 14:05 | 53.33265 | -2.30923 | 1044 ft | 163 kts | 232° |
| 2026-05-01 14:05 | 53.32797 | -2.31936 | 1568 ft | 163 kts | 233° |
| 2026-05-01 14:06 | 53.32141 | -2.33499 | 2204 ft | 168 kts | 236° |
| 2026-05-01 14:06 | 53.31750 | -2.35429 | 2755 ft | 186 kts | 263° |
| 2026-05-01 14:06 | 53.31903 | -2.37765 | 3044 ft | 219 kts | 277° |
| 2026-05-01 14:06 | 53.32235 | -2.40412 | 3407 ft | 247 kts | 280° |
| 2026-05-01 14:07 | 53.32487 | -2.43369 | 3831 ft | 263 kts | 263° |
| 2026-05-01 14:07 | 53.32044 | -2.46283 | 4827 ft | 256 kts | 250° |
| 2026-05-01 14:07 | 53.31527 | -2.49135 | 5703 ft | 258 kts | 250° |
| 2026-05-01 14:08 | 53.30464 | -2.54984 | 7320 ft | 267 kts | 248° |
| 2026-05-01 14:08 | 53.29914 | -2.57961 | 8234 ft | 268 kts | 247° |
| 2026-05-01 14:08 | 53.29214 | -2.60843 | 9098 ft | 269 kts | 239° |
| 2026-05-01 14:08 | 53.28361 | -2.63629 | 9910 ft | 270 kts | 234° |
| 2026-05-01 14:09 | 53.27095 | -2.65959 | 10249 ft | 281 kts | 214° |
| 2026-05-01 14:09 | 53.25404 | -2.67868 | 10282 ft | 306 kts | 211° |
| 2026-05-01 14:09 | 53.23573 | -2.69923 | 10452 ft | 325 kts | 212° |
| 2026-05-01 14:09 | 53.21729 | -2.72096 | 11123 ft | 326 kts | 213° |
| 2026-05-01 14:10 | 53.19855 | -2.74286 | 11652 ft | 331 kts | 212° |
| 2026-05-01 14:10 | 53.17948 | -2.76469 | 12263 ft | 334 kts | 212° |
| 2026-05-01 14:10 | 53.16024 | -2.78673 | 12832 ft | 338 kts | 212° |
| 2026-05-01 14:10 | 53.14078 | -2.80919 | 13408 ft | 342 kts | 212° |
| 2026-05-01 14:11 | 53.12113 | -2.83183 | 13990 ft | 345 kts | 213° |
| 2026-05-01 14:11 | 53.07901 | -2.87017 | 14942 ft | 349 kts | 194° |
| 2026-05-01 14:11 | 53.05499 | -2.87531 | 15484 ft | 351 kts | 180° |
| 2026-05-01 14:12 | 53.03069 | -2.87049 | 15995 ft | 353 kts | 171° |
| 2026-05-01 14:12 | 53.00632 | -2.86368 | 16537 ft | 356 kts | 171° |
| 2026-05-01 14:12 | 52.98176 | -2.85701 | 17074 ft | 359 kts | 172° |
| 2026-05-01 14:12 | 52.95699 | -2.85038 | 17629 ft | 362 kts | 172° |
| 2026-05-01 14:13 | 52.93196 | -2.84361 | 18207 ft | 366 kts | 172° |
| 2026-05-01 14:13 | 52.90676 | -2.83676 | 18744 ft | 369 kts | 172° |
| 2026-05-01 14:13 | 52.88136 | -2.82989 | 19292 ft | 371 kts | 172° |
| 2026-05-01 14:13 | 52.85582 | -2.82302 | 19848 ft | 373 kts | 172° |
| 2026-05-01 14:14 | 52.83012 | -2.81610 | 20412 ft | 375 kts | 172° |
| 2026-05-01 14:14 | 52.80425 | -2.80913 | 20992 ft | 378 kts | 172° |
| 2026-05-01 14:14 | 52.77819 | -2.80213 | 21546 ft | 380 kts | 172° |
| 2026-05-01 14:14 | 52.75200 | -2.79510 | 22101 ft | 383 kts | 172° |
| 2026-05-01 14:15 | 52.72565 | -2.78804 | 22639 ft | 385 kts | 172° |
| 2026-05-01 14:15 | 52.69910 | -2.78093 | 23208 ft | 387 kts | 172° |
| 2026-05-01 14:15 | 52.67240 | -2.77379 | 23735 ft | 390 kts | 172° |
| 2026-05-01 14:15 | 52.64551 | -2.76661 | 24191 ft | 393 kts | 172° |
| 2026-05-01 14:16 | 52.61840 | -2.76011 | 24606 ft | 395 kts | 175° |
| 2026-05-01 14:16 | 52.59088 | -2.75959 | 25042 ft | 397 kts | 183° |
| 2026-05-01 14:16 | 52.56325 | -2.76225 | 25479 ft | 399 kts | 183° |
| 2026-05-01 14:16 | 52.53542 | -2.76460 | 25920 ft | 401 kts | 183° |
| 2026-05-01 14:17 | 52.50744 | -2.76684 | 26356 ft | 404 kts | 183° |
| 2026-05-01 14:17 | 52.47924 | -2.76930 | 26785 ft | 407 kts | 183° |
| 2026-05-01 14:17 | 52.45088 | -2.77186 | 27223 ft | 410 kts | 183° |
| 2026-05-01 14:17 | 52.42230 | -2.77434 | 27663 ft | 412 kts | 183° |
| 2026-05-01 14:18 | 52.39356 | -2.77677 | 28110 ft | 415 kts | 183° |
| 2026-05-01 14:18 | 52.36460 | -2.77926 | 28555 ft | 418 kts | 183° |
| 2026-05-01 14:18 | 52.33547 | -2.78179 | 28988 ft | 421 kts | 183° |
| 2026-05-01 14:18 | 52.31606 | -2.78347 | 29288 ft | 423 kts | 183° |
| 2026-05-01 14:19 | 52.27698 | -2.78682 | 29857 ft | 427 kts | 183° |
| 2026-05-01 14:19 | 52.24723 | -2.78937 | 30260 ft | 430 kts | 183° |
| 2026-05-01 14:19 | 52.21726 | -2.79193 | 30602 ft | 433 kts | 183° |
| 2026-05-01 14:19 | 52.18705 | -2.79451 | 30942 ft | 436 kts | 183° |
| 2026-05-01 14:20 | 52.15673 | -2.79710 | 31367 ft | 436 kts | 183° |
| 2026-05-01 14:20 | 52.09634 | -2.80226 | 32386 ft | 434 kts | 183° |
| 2026-05-01 14:20 | 52.06616 | -2.80483 | 32870 ft | 434 kts | 183° |
| 2026-05-01 14:21 | 52.03604 | -2.80738 | 33363 ft | 434 kts | 183° |
| 2026-05-01 14:21 | 52.00591 | -2.80994 | 33863 ft | 433 kts | 183° |
| 2026-05-01 14:21 | 51.97579 | -2.81250 | 34309 ft | 433 kts | 183° |
| 2026-05-01 14:22 | 51.91572 | -2.81757 | 35204 ft | 432 kts | 183° |
| 2026-05-01 14:22 | 51.88576 | -2.82010 | 35670 ft | 431 kts | 183° |
| 2026-05-01 14:22 | 51.85584 | -2.82280 | 36112 ft | 430 kts | 185° |
| 2026-05-01 14:22 | 51.82618 | -2.82873 | 36524 ft | 429 kts | 188° |
| 2026-05-01 14:23 | 51.79663 | -2.83536 | 36991 ft | 428 kts | 188° |
| 2026-05-01 14:23 | 51.76716 | -2.84174 | 37436 ft | 428 kts | 188° |
| 2026-05-01 14:23 | 51.73767 | -2.84790 | 37879 ft | 427 kts | 187° |
| 2026-05-01 14:23 | 51.70822 | -2.85414 | 38335 ft | 426 kts | 188° |
| 2026-05-01 14:24 | 51.67884 | -2.86049 | 38788 ft | 425 kts | 188° |
| 2026-05-01 14:24 | 51.64949 | -2.86679 | 39132 ft | 425 kts | 188° |
| 2026-05-01 14:24 | 51.62011 | -2.87301 | 39420 ft | 427 kts | 188° |
| 2026-05-01 14:24 | 51.59067 | -2.87925 | 39725 ft | 427 kts | 188° |
| 2026-05-01 14:25 | 51.56118 | -2.88553 | 40016 ft | 429 kts | 188° |
| 2026-05-01 14:25 | 51.53156 | -2.89183 | 40353 ft | 428 kts | 188° |
| 2026-05-01 14:25 | 51.50207 | -2.89807 | 40655 ft | 429 kts | 188° |
| 2026-05-01 14:25 | 51.47240 | -2.90434 | 40913 ft | 430 kts | 188° |
| 2026-05-01 14:26 | 51.44261 | -2.91064 | 41032 ft | 436 kts | 188° |
| 2026-05-01 14:26 | 51.38149 | -2.92354 | 41045 ft | 450 kts | 188° |
| 2026-05-01 14:27 | 51.31837 | -2.93681 | 41044 ft | 464 kts | 188° |
| 2026-05-01 14:27 | 51.25360 | -2.95040 | 41050 ft | 475 kts | 188° |
| 2026-05-01 14:28 | 51.15411 | -2.97119 | 41045 ft | 486 kts | 188° |
| 2026-05-01 14:28 | 51.08718 | -2.98513 | 41047 ft | 490 kts | 188° |
| 2026-05-01 14:29 | 51.01877 | -2.99933 | 41041 ft | 494 kts | 188° |
| 2026-05-01 14:30 | 50.88239 | -3.02752 | 41038 ft | 498 kts | 188° |
| 2026-05-01 14:31 | 50.77878 | -3.04882 | 41049 ft | 499 kts | 188° |
| 2026-05-01 14:31 | 50.70980 | -3.06296 | 41044 ft | 500 kts | 188° |
| 2026-05-01 14:32 | 50.64081 | -3.07705 | 41047 ft | 500 kts | 188° |
| 2026-05-01 14:32 | 50.57178 | -3.09111 | 41040 ft | 500 kts | 188° |
| 2026-05-01 14:33 | 50.50320 | -3.10503 | 41043 ft | 501 kts | 188° |
| 2026-05-01 14:33 | 50.43407 | -3.11903 | 41051 ft | 501 kts | 188° |
| 2026-05-01 14:34 | 50.36550 | -3.13709 | 41047 ft | 500 kts | 196° |
| 2026-05-01 14:34 | 50.30075 | -3.17673 | 41060 ft | 500 kts | 202° |
| 2026-05-01 14:35 | 50.23618 | -3.21733 | 41085 ft | 500 kts | 202° |
| 2026-05-01 14:35 | 50.17185 | -3.25808 | 41071 ft | 499 kts | 202° |
| 2026-05-01 14:36 | 50.10749 | -3.29860 | 41064 ft | 499 kts | 202° |
| 2026-05-01 14:36 | 50.04310 | -3.33901 | 41063 ft | 499 kts | 202° |
| 2026-05-01 14:37 | 49.97868 | -3.37937 | 41067 ft | 499 kts | 202° |
| 2026-05-01 14:37 | 49.91427 | -3.41957 | 41066 ft | 499 kts | 202° |
| 2026-05-01 14:38 | 49.84981 | -3.45971 | 41070 ft | 499 kts | 202° |
| 2026-05-01 14:38 | 49.78532 | -3.49973 | 41068 ft | 499 kts | 202° |
| 2026-05-01 14:39 | 49.72067 | -3.53906 | 41072 ft | 499 kts | 200° |
| 2026-05-01 14:39 | 49.65564 | -3.57686 | 41073 ft | 499 kts | 201° |
| 2026-05-01 14:40 | 49.59064 | -3.61450 | 41080 ft | 498 kts | 201° |
| 2026-05-01 14:40 | 49.52564 | -3.65194 | 41083 ft | 498 kts | 201° |
| 2026-05-01 14:41 | 49.46071 | -3.68935 | 41074 ft | 498 kts | 201° |
| 2026-05-01 14:41 | 49.39570 | -3.72660 | 41067 ft | 499 kts | 201° |
| 2026-05-01 14:42 | 49.33065 | -3.76383 | 41070 ft | 499 kts | 201° |
| 2026-05-01 14:42 | 49.26561 | -3.80091 | 41070 ft | 499 kts | 201° |
| 2026-05-01 14:43 | 49.20059 | -3.83791 | 41068 ft | 499 kts | 201° |
| 2026-05-01 14:43 | 49.13548 | -3.87482 | 41069 ft | 499 kts | 201° |
| 2026-05-01 14:44 | 49.07041 | -3.91163 | 41066 ft | 499 kts | 201° |
| 2026-05-01 14:44 | 48.97277 | -3.96666 | 41084 ft | 498 kts | 201° |
| 2026-05-01 14:45 | 48.87521 | -4.02141 | 41079 ft | 498 kts | 201° |
| 2026-05-01 14:46 | 48.81017 | -4.05779 | 41073 ft | 498 kts | 201° |
| 2026-05-01 14:46 | 48.71255 | -4.11220 | 41073 ft | 498 kts | 201° |
| 2026-05-01 14:47 | 48.64747 | -4.14834 | 41074 ft | 498 kts | 201° |
| 2026-05-01 14:48 | 48.54980 | -4.20241 | 41067 ft | 498 kts | 201° |
| 2026-05-01 14:48 | 48.46314 | -4.25020 | 41063 ft | 498 kts | 201° |
| 2026-05-01 14:49 | 48.33294 | -4.32166 | 41073 ft | 497 kts | 201° |
| 2026-05-01 14:50 | 48.20294 | -4.39263 | 41076 ft | 497 kts | 200° |
| 2026-05-01 14:51 | 48.10544 | -4.44560 | 41060 ft | 497 kts | 200° |
| 2026-05-01 14:52 | 48.00789 | -4.49839 | 41065 ft | 497 kts | 200° |
| 2026-05-01 14:53 | 47.91031 | -4.55098 | 41055 ft | 497 kts | 200° |
| 2026-05-01 14:53 | 47.84525 | -4.58593 | 41065 ft | 497 kts | 200° |
| 2026-05-01 14:54 | 47.78023 | -4.62076 | 41060 ft | 497 kts | 200° |
| 2026-05-01 14:54 | 47.71511 | -4.65555 | 41065 ft | 497 kts | 200° |
| 2026-05-01 14:55 | 47.65003 | -4.69024 | 41062 ft | 497 kts | 200° |
| 2026-05-01 14:55 | 47.58488 | -4.72486 | 41063 ft | 497 kts | 200° |
| 2026-05-01 14:56 | 47.51968 | -4.75942 | 41062 ft | 497 kts | 200° |
| 2026-05-01 14:56 | 47.45449 | -4.79388 | 41068 ft | 498 kts | 200° |
| 2026-05-01 14:57 | 47.38926 | -4.82828 | 41067 ft | 498 kts | 200° |
| 2026-05-01 14:57 | 47.29128 | -4.87977 | 41068 ft | 498 kts | 200° |
| 2026-05-01 14:58 | 47.22639 | -4.91376 | 41070 ft | 498 kts | 200° |
| 2026-05-01 14:58 | 47.16105 | -4.94790 | 41068 ft | 498 kts | 200° |
| 2026-05-01 14:59 | 47.09596 | -4.98199 | 41072 ft | 496 kts | 201° |
| 2026-05-01 14:59 | 47.03541 | -5.03001 | 41075 ft | 495 kts | 212° |
| 2026-05-01 15:00 | 46.94717 | -5.10913 | 41084 ft | 496 kts | 212° |
| 2026-05-01 15:01 | 46.88841 | -5.16199 | 41078 ft | 496 kts | 212° |
| 2026-05-01 15:01 | 46.82944 | -5.21454 | 41071 ft | 496 kts | 211° |
| 2026-05-01 15:02 | 46.77054 | -5.26710 | 41072 ft | 496 kts | 212° |
| 2026-05-01 15:02 | 46.71159 | -5.31945 | 41072 ft | 496 kts | 211° |
| 2026-05-01 15:03 | 46.65270 | -5.37167 | 41067 ft | 496 kts | 211° |
| 2026-05-01 15:03 | 46.59378 | -5.42375 | 41068 ft | 496 kts | 211° |
| 2026-05-01 15:04 | 46.53479 | -5.47577 | 41068 ft | 496 kts | 211° |
| 2026-05-01 15:04 | 46.47584 | -5.52762 | 41068 ft | 496 kts | 211° |
| 2026-05-01 15:05 | 46.41680 | -5.57942 | 41055 ft | 496 kts | 211° |
| 2026-05-01 15:05 | 46.35779 | -5.63106 | 41068 ft | 495 kts | 211° |
| 2026-05-01 15:06 | 46.29884 | -5.68252 | 41064 ft | 495 kts | 211° |
| 2026-05-01 15:06 | 46.23992 | -5.73381 | 41059 ft | 495 kts | 211° |
| 2026-05-01 15:07 | 46.18099 | -5.78500 | 41051 ft | 495 kts | 211° |
| 2026-05-01 15:07 | 46.12197 | -5.83612 | 41051 ft | 495 kts | 211° |
| 2026-05-01 15:08 | 46.06299 | -5.88708 | 41050 ft | 495 kts | 211° |
| 2026-05-01 15:08 | 46.00394 | -5.93798 | 41035 ft | 494 kts | 211° |
| 2026-05-01 15:09 | 45.94496 | -5.98869 | 41050 ft | 494 kts | 211° |
| 2026-05-01 15:09 | 45.88599 | -6.03926 | 41047 ft | 494 kts | 211° |
| 2026-05-01 15:10 | 45.82695 | -6.08976 | 41042 ft | 494 kts | 211° |
| 2026-05-01 15:10 | 45.73849 | -6.16520 | 41032 ft | 493 kts | 211° |
| 2026-05-01 15:11 | 45.65036 | -6.24007 | 41031 ft | 493 kts | 211° |
| 2026-05-01 15:12 | 45.59130 | -6.29009 | 41022 ft | 493 kts | 211° |
| 2026-05-01 15:12 | 45.50270 | -6.36491 | 41020 ft | 493 kts | 210° |
| 2026-05-01 15:14 | 45.35500 | -6.48900 | 41018 ft | 493 kts | 210° |
| 2026-05-01 15:14 | 45.26639 | -6.56309 | 41018 ft | 493 kts | 210° |
| 2026-05-01 15:15 | 45.14812 | -6.66155 | 41017 ft | 492 kts | 210° |
| 2026-05-01 15:16 | 45.02984 | -6.75955 | 41018 ft | 493 kts | 210° |
| 2026-05-01 15:18 | 44.88194 | -6.88142 | 41016 ft | 492 kts | 210° |
| 2026-05-01 15:19 | 44.76519 | -6.98203 | 41003 ft | 492 kts | 212° |
| 2026-05-01 15:19 | 44.67830 | -7.05883 | 41004 ft | 492 kts | 212° |
| 2026-05-01 15:20 | 44.59140 | -7.13545 | 41004 ft | 492 kts | 212° |
| 2026-05-01 15:21 | 44.53344 | -7.18643 | 41003 ft | 492 kts | 212° |
| 2026-05-01 15:21 | 44.47542 | -7.23730 | 41011 ft | 492 kts | 212° |
| 2026-05-01 15:22 | 44.38832 | -7.31347 | 41009 ft | 492 kts | 212° |
| 2026-05-01 15:22 | 44.33019 | -7.36415 | 41003 ft | 492 kts | 212° |
| 2026-05-01 15:23 | 44.27207 | -7.41470 | 41002 ft | 492 kts | 212° |
| 2026-05-01 15:23 | 44.21393 | -7.46516 | 40999 ft | 492 kts | 212° |
| 2026-05-01 15:24 | 44.15574 | -7.51553 | 40992 ft | 492 kts | 212° |
| 2026-05-01 15:24 | 44.09753 | -7.56581 | 40991 ft | 492 kts | 212° |
| 2026-05-01 15:25 | 44.03965 | -7.61568 | 41009 ft | 493 kts | 212° |
| 2026-05-01 15:25 | 43.98133 | -7.66582 | 41011 ft | 493 kts | 212° |
| 2026-05-01 15:26 | 43.92305 | -7.71580 | 41000 ft | 493 kts | 212° |
| 2026-05-01 15:26 | 43.86472 | -7.76571 | 40999 ft | 493 kts | 212° |
| 2026-05-01 15:27 | 43.80640 | -7.81549 | 41000 ft | 492 kts | 212° |
| 2026-05-01 15:28 | 43.71890 | -7.88997 | 40992 ft | 492 kts | 212° |
| 2026-05-01 15:28 | 43.66063 | -7.93943 | 40992 ft | 491 kts | 212° |
| 2026-05-01 15:29 | 43.57323 | -8.01339 | 40993 ft | 491 kts | 212° |
| 2026-05-01 15:30 | 43.46616 | -8.10366 | 41001 ft | 491 kts | 212° |
| 2026-05-01 15:31 | 43.28198 | -8.25804 | 41008 ft | 489 kts | 212° |